Time;durP1;ratioP1;P1;durP2;ratioP2;P2;SDS_P1;SDS_P2;PMS_P1;PMS_P2;Temp;Humidity;BMP_temperature;BMP_pressure;BME280_temperature;BME280_humidity;BME280_pressure;Samples;Min_cycle;Max_cycle;Signal;HPM_P1;HPM_P2
2023/09/12 00:01:56;;;;;;;;;;;;;;;;;;4985303;28;93725;-65
2023/09/12 00:04:22;;;;;;;;;;;;;;;;;;4982478;28;93459;-68
2023/09/12 00:06:47;;;;;;;;;;;;;;;;;;4982275;28;93904;-65
2023/09/12 00:09:12;;;;;;;;;;;;;;;;;;4982475;28;94087;-64
2023/09/12 00:11:37;;;;;;;;;;;;;;;;;;4981268;28;92184;-66
2023/09/12 00:14:03;;;;;;;;;;;;;;;;;;4982740;28;92703;-66
2023/09/12 00:16:28;;;;;;;;;;;;;;;;;;4985537;28;92727;-68
2023/09/12 00:18:53;;;;;;;;;;;;;;;;;;4984555;28;93273;-71
2023/09/12 00:21:18;;;;;;;;;;;;;;;;;;4986420;28;94231;-68
2023/09/12 00:23:43;;;;;;;;;;;;;;;;;;4989123;28;92815;-70
2023/09/12 00:26:09;;;;;;;;;;;;;;;;;;4986204;28;93620;-71
2023/09/12 00:28:34;;;;;;;;;;;;;;;;;;4985921;28;92556;-70
2023/09/12 00:30:59;;;;;;;;;;;;;;;;;;4985615;28;92279;-70
2023/09/12 00:33:24;;;;;;;;;;;;;;;;;;4982111;28;92618;-71
2023/09/12 00:35:49;;;;;;;;;;;;;;;;;;4986061;28;92584;-65
2023/09/12 00:38:15;;;;;;;;;;;;;;;;;;4985783;28;92645;-64
2023/09/12 00:40:42;;;;;;;;;;;;;;;;;;4974835;28;92668;-66
2023/09/12 00:43:08;;;;;;;;;;;;;;;;;;4977583;28;93561;-66
2023/09/12 00:45:33;;;;;;;;;;;;;;;;;;4988941;28;92610;-67
2023/09/12 00:48:00;;;;;;;;;;;;;;;;;;4985737;28;92575;-70
2023/09/12 00:50:26;;;;;;;;;;;;;;;;;;4984835;28;92450;-65
2023/09/12 00:52:52;;;;;;;;;;;;;;;;;;4985572;28;92486;-67
2023/09/12 00:55:17;;;;;;;;;;;;;;;;;;4985833;28;93297;-68
2023/09/12 00:57:43;;;;;;;;;;;;;;;;;;4985063;28;92847;-63
2023/09/12 01:00:12;;;;;;;;;;;;;;;;;;4985713;28;92572;-63
2023/09/12 01:02:46;;;;;;;;;;;;;;;;;;4985169;28;92641;-63
2023/09/12 01:05:12;;;;;;;;;;;;;;;;;;4985127;28;92456;-62
2023/09/12 01:07:38;;;;;;;;;;;;;;;;;;4987643;28;93392;-66
2023/09/12 01:10:04;;;;;;;;;;;;;;;;;;4985656;28;92820;-65
2023/09/12 01:12:29;;;;;;;;;;;;;;;;;;4978029;28;93501;-63
2023/09/12 01:14:55;;;;;;;;;;;;;;;;;;4984791;28;92759;-62
2023/09/12 01:17:20;;;;;;;;;;;;;;;;;;4983380;28;93285;-63
2023/09/12 01:19:46;;;;;;;;;;;;;;;;;;4981951;28;93835;-67
2023/09/12 01:22:26;;;;;;;;;;;;;;;;;;4984622;28;93497;-68
2023/09/12 01:24:51;;;;;;;;;;;;;;;;;;4984089;28;91923;-65
2023/09/12 01:27:21;;;;;;;;;;;;;;;;;;4985296;28;92487;-65
2023/09/12 01:29:49;;;;;;;;;;;;;;;;;;4987854;28;92598;-64
2023/09/12 01:32:14;;;;;;;;;;;;;;;;;;4984356;28;93162;-65
2023/09/12 01:34:39;;;;;;;;;;;;;;;;;;4984474;28;93060;-64
2023/09/12 01:37:04;;;;;;;;;;;;;;;;;;4984984;28;92744;-63
2023/09/12 01:39:30;;;;;;;;;;;;;;;;;;4984326;28;93474;-62
2023/09/12 01:41:58;;;;;;;;;;;;;;;;;;4977315;28;92644;-66
2023/09/12 01:44:24;;;;;;;;;;;;;;;;;;4982796;28;92690;-68
2023/09/12 01:46:52;;;;;;;;;;;;;;;;;;4984695;28;92705;-64
2023/09/12 01:49:19;;;;;;;;;;;;;;;;;;4985987;28;91513;-64
2023/09/12 01:51:44;;;;;;;;;;;;;;;;;;4986244;28;92729;-63
2023/09/12 01:54:10;;;;;;;;;;;;;;;;;;4984655;28;92843;-64
2023/09/12 01:56:35;;;;;;;;;;;;;;;;;;4983883;28;93340;-63
2023/09/12 01:59:02;;;;;;;;;;;;;;;;;;4984581;28;94335;-62
2023/09/12 02:01:27;;;;;;;;;;;;;;;;;;4984445;28;92837;-62
2023/09/12 02:03:52;;;;;;;;;;;;;;;;;;4984557;28;93679;-65
2023/09/12 02:06:18;;;;;;;;;;;;;;;;;;4984629;28;93362;-62
2023/09/12 02:08:43;;;;;;;;;;;;;;;;;;4984075;28;92882;-67
2023/09/12 02:11:08;;;;;;;;;;;;;;;;;;4984175;28;92292;-67
2023/09/12 02:13:33;;;;;;;;;;;;;;;;;;4976015;28;92102;-63
2023/09/12 02:15:59;;;;;;;;;;;;;;;;;;4984192;28;92976;-63
2023/09/12 02:18:24;;;;;;;;;;;;;;;;;;4984533;28;92465;-64
2023/09/12 02:20:49;;;;;;;;;;;;;;;;;;4983963;28;93616;-64
2023/09/12 02:23:14;;;;;;;;;;;;;;;;;;4972048;28;92502;-63
2023/09/12 02:25:40;;;;;;;;;;;;;;;;;;4970776;28;92578;-69
2023/09/12 02:28:05;;;;;;;;;;;;;;;;;;4983730;28;92702;-63
2023/09/12 02:30:30;;;;;;;;;;;;;;;;;;4983391;28;92239;-65
2023/09/12 02:32:55;;;;;;;;;;;;;;;;;;4986956;28;93209;-64
2023/09/12 02:35:21;;;;;;;;;;;;;;;;;;4984267;28;93242;-68
2023/09/12 02:37:46;;;;;;;;;;;;;;;;;;4984160;28;93654;-68
2023/09/12 02:40:11;;;;;;;;;;;;;;;;;;4976905;28;92770;-67
2023/09/12 02:42:37;;;;;;;;;;;;;;;;;;4978798;28;93260;-67
2023/09/12 02:45:03;;;;;;;;;;;;;;;;;;4983079;28;94160;-63
2023/09/12 02:47:28;;;;;;;;;;;;;;;;;;4983627;28;93285;-62
2023/09/12 02:49:53;;;;;;;;;;;;;;;;;;4984209;28;92560;-68
2023/09/12 02:52:18;;;;;;;;;;;;;;;;;;4981980;28;95789;-66
2023/09/12 02:54:43;;;;;;;;;;;;;;;;;;4986606;28;92678;-63
2023/09/12 02:57:09;;;;;;;;;;;;;;;;;;4983788;28;92296;-66
2023/09/12 02:59:34;;;;;;;;;;;;;;;;;;4983553;28;93724;-68
2023/09/12 03:02:00;;;;;;;;;;;;;;;;;;4984068;28;92768;-66
2023/09/12 03:04:26;;;;;;;;;;;;;;;;;;4984334;28;93343;-69
2023/09/12 03:06:51;;;;;;;;;;;;;;;;;;4983925;28;92948;-62
2023/09/12 03:09:18;;;;;;;;;;;;;;;;;;4981160;28;93724;-63
2023/09/12 03:11:43;;;;;;;;;;;;;;;;;;4982565;28;93569;-62
2023/09/12 03:14:08;;;;;;;;;;;;;;;;;;4982817;28;93723;-63
2023/09/12 03:16:34;;;;;;;;;;;;;;;;;;4984456;28;92671;-63
2023/09/12 03:19:01;;;;;;;;;;;;;;;;;;4963802;28;93789;-64
2023/09/12 03:21:26;;;;;;;;;;;;;;;;;;4963240;28;92728;-66
2023/09/12 03:23:51;;;;;;;;;;;;;;;;;;4963901;28;92633;-68
2023/09/12 03:26:16;;;;;;;;;;;;;;;;;;4964072;28;92067;-63
2023/09/12 03:28:41;;;;;;;;;;;;;;;;;;4962749;28;92686;-62
2023/09/12 03:31:08;;;;;;;;;;;;;;;;;;4962579;28;92568;-65
2023/09/12 03:33:33;;;;;;;;;;;;;;;;;;4965474;28;93623;-62
2023/09/12 03:35:58;;;;;;;;;;;;;;;;;;4963155;28;92279;-68
2023/09/12 03:38:24;;;;;;;;;;;;;;;;;;4966158;28;92724;-62
2023/09/12 03:40:49;;;;;;;;;;;;;;;;;;4968590;28;92724;-67
2023/09/12 03:43:14;;;;;;;;;;;;;;;;;;4965370;28;93736;-67
2023/09/12 03:45:39;;;;;;;;;;;;;;;;;;4962550;28;92921;-71
2023/09/12 03:48:05;;;;;;;;;;;;;;;;;;4962558;28;92899;-66
2023/09/12 03:50:30;;;;;;;;;;;;;;;;;;4964203;28;92382;-70
2023/09/12 03:52:55;;;;;;;;;;;;;;;;;;4963009;28;92782;-69
2023/09/12 03:55:20;;;;;;;;;;;;;;;;;;4961307;28;92765;-69
2023/09/12 03:57:45;;;;;;;;;;;;;;;;;;4962676;28;93848;-63
2023/09/12 04:00:11;;;;;;;;;;;;;;;;;;4966155;28;93201;-62
2023/09/12 04:02:36;;;;;;;;;;;;;;;;;;4962788;28;92703;-67
2023/09/12 04:05:01;;;;;;;;;;;;;;;;;;4963137;28;92736;-67
2023/09/12 04:07:27;;;;;;;;;;;;;;;;;;4963749;28;92602;-66
2023/09/12 04:09:52;;;;;;;;;;;;;;;;;;4963067;28;93687;-63
2023/09/12 04:12:17;;;;;;;;;;;;;;;;;;4977739;28;93746;-62
2023/09/12 04:14:42;;;;;;;;;;;;;;;;;;4974069;28;92737;-61
2023/09/12 04:17:08;;;;;;;;;;;;;;;;;;4963203;28;93591;-69
2023/09/12 04:19:33;;;;;;;;;;;;;;;;;;4981845;28;93914;-63
2023/09/12 04:21:59;;;;;;;;;;;;;;;;;;4982054;28;93655;-63
2023/09/12 04:24:25;;;;;;;;;;;;;;;;;;4982148;28;92758;-65
2023/09/12 04:26:50;;;;;;;;;;;;;;;;;;4981933;28;92535;-65
2023/09/12 04:29:15;;;;;;;;;;;;;;;;;;4972362;28;93998;-63
2023/09/12 04:31:40;;;;;;;;;;;;;;;;;;4981559;28;93449;-68
2023/09/12 04:34:05;;;;;;;;;;;;;;;;;;4981798;28;92817;-63
2023/09/12 04:36:31;;;;;;;;;;;;;;;;;;4982305;28;93227;-62
2023/09/12 04:38:56;;;;;;;;;;;;;;;;;;4982529;28;92210;-62
2023/09/12 04:41:21;;;;;;;;;;;;;;;;;;4984760;28;92500;-65
2023/09/12 04:43:46;;;;;;;;;;;;;;;;;;4972370;28;93339;-63
2023/09/12 04:46:12;;;;;;;;;;;;;;;;;;4971858;28;93210;-67
2023/09/12 04:48:37;;;;;;;;;;;;;;;;;;4968475;28;96066;-65
2023/09/12 04:51:02;;;;;;;;;;;;;;;;;;4975178;28;94227;-64
2023/09/12 04:53:33;;;;;;;;;;;;;;;;;;4979234;28;92607;-66
2023/09/12 04:55:59;;;;;;;;;;;;;;;;;;4973991;28;93561;-66
2023/09/12 04:58:24;;;;;;;;;;;;;;;;;;4970712;28;92732;-65
2023/09/12 05:00:49;;;;;;;;;;;;;;;;;;4976059;28;93621;-63
2023/09/12 05:03:15;;;;;;;;;;;;;;;;;;4981050;28;92825;-64
2023/09/12 05:05:40;;;;;;;;;;;;;;;;;;4980401;28;94441;-62
2023/09/12 05:08:06;;;;;;;;;;;;;;;;;;4974927;28;94180;-64
2023/09/12 05:10:31;;;;;;;;;;;;;;;;;;4975925;28;94558;-66
2023/09/12 05:12:56;;;;;;;;;;;;;;;;;;4982475;28;92848;-68
2023/09/12 05:15:21;;;;;;;;;;;;;;;;;;4975105;28;93835;-63
2023/09/12 05:17:46;;;;;;;;;;;;;;;;;;4974700;28;92771;-67
2023/09/12 05:20:12;;;;;;;;;;;;;;;;;;4977786;28;92704;-66
2023/09/12 05:22:37;;;;;;;;;;;;;;;;;;4976450;28;93815;-65
2023/09/12 05:25:05;;;;;;;;;;;;;;;;;;4981912;28;92953;-67
2023/09/12 05:27:30;;;;;;;;;;;;;;;;;;4974938;28;92586;-68
2023/09/12 05:29:55;;;;;;;;;;;;;;;;;;4977409;28;92618;-65
2023/09/12 05:32:20;;;;;;;;;;;;;;;;;;4981553;28;92638;-62
2023/09/12 05:34:49;;;;;;;;;;;;;;;;;;4973200;28;95129;-69
2023/09/12 05:37:14;;;;;;;;;;;;;;;;;;4972794;28;93966;-66
2023/09/12 05:39:39;;;;;;;;;;;;;;;;;;4970300;28;92616;-67
2023/09/12 05:42:05;;;;;;;;;;;;;;;;;;4974352;28;93352;-67
2023/09/12 05:44:30;;;;;;;;;;;;;;;;;;4974010;28;93116;-62
2023/09/12 05:46:56;;;;;;;;;;;;;;;;;;4970911;28;92782;-64
2023/09/12 05:49:21;;;;;;;;;;;;;;;;;;4971967;28;93422;-64
2023/09/12 05:51:46;;;;;;;;;;;;;;;;;;4975670;28;92639;-65
2023/09/12 05:54:13;;;;;;;;;;;;;;;;;;4974726;28;93616;-72
2023/09/12 05:56:39;;;;;;;;;;;;;;;;;;4973586;28;93748;-67
2023/09/12 05:59:04;;;;;;;;;;;;;;;;;;4971034;28;93969;-66
2023/09/12 06:01:29;;;;;;;;;;;;;;;;;;4972953;28;93334;-65
2023/09/12 06:03:54;;;;;;;;;;;;;;;;;;4974368;28;93712;-71
2023/09/12 06:06:19;;;;;;;;;;;;;;;;;;4976433;28;93333;-70
2023/09/12 06:08:45;;;;;;;;;;;;;;;;;;4973455;28;95325;-66
2023/09/12 06:11:10;;;;;;;;;;;;;;;;;;4978967;28;92741;-66
2023/09/12 06:13:37;;;;;;;;;;;;;;;;;;4972971;28;92897;-68
2023/09/12 06:16:02;;;;;;;;;;;;;;;;;;4976742;28;93154;-65
2023/09/12 06:18:29;;;;;;;;;;;;;;;;;;4967529;28;92480;-62
2023/09/12 06:20:55;;;;;;;;;;;;;;;;;;4974376;28;92843;-70
2023/09/12 06:23:20;;;;;;;;;;;;;;;;;;4973212;28;94943;-65
2023/09/12 06:25:45;;;;;;;;;;;;;;;;;;4976117;28;92669;-63
2023/09/12 06:28:11;;;;;;;;;;;;;;;;;;4972924;28;92930;-66
2023/09/12 06:30:37;;;;;;;;;;;;;;;;;;4975520;28;93201;-63
2023/09/12 06:33:03;;;;;;;;;;;;;;;;;;4974650;28;93109;-63
2023/09/12 06:35:28;;;;;;;;;;;;;;;;;;4975224;28;93949;-67
2023/09/12 06:37:55;;;;;;;;;;;;;;;;;;4973294;28;92290;-62
2023/09/12 06:40:21;;;;;;;;;;;;;;;;;;4972141;28;92563;-66
2023/09/12 06:42:46;;;;;;;;;;;;;;;;;;4977652;28;92832;-64
2023/09/12 06:45:11;;;;;;;;;;;;;;;;;;4970290;28;92840;-63
2023/09/12 06:47:37;;;;;;;;;;;;;;;;;;4968509;28;94017;-65
2023/09/12 06:50:02;;;;;;;;;;;;;;;;;;4977229;28;92937;-66
2023/09/12 06:52:28;;;;;;;;;;;;;;;;;;4973202;28;92996;-65
2023/09/12 06:54:53;;;;;;;;;;;;;;;;;;4968898;28;92669;-66
2023/09/12 06:57:18;;;;;;;;;;;;;;;;;;4973100;28;93049;-66
2023/09/12 06:59:44;;;;;;;;;;;;;;;;;;4973249;28;92860;-62
2023/09/12 07:02:11;;;;;;;;;;;;;;;;;;4972839;28;93371;-64
2023/09/12 07:04:36;;;;;;;;;;;;;;;;;;4975480;28;93247;-65
2023/09/12 07:07:02;;;;;;;;;;;;;;;;;;4976324;28;93637;-63
2023/09/12 07:09:27;;;;;;;;;;;;;;;;;;4973853;28;94062;-66
2023/09/12 07:11:53;;;;;;;;;;;;;;;;;;4975485;28;93638;-69
2023/09/12 07:14:18;;;;;;;;;;;;;;;;;;4974182;28;93283;-68
2023/09/12 07:16:43;;;;;;;;;;;;;;;;;;4972674;28;92923;-61
2023/09/12 07:19:09;;;;;;;;;;;;;;;;;;4973680;28;93808;-65
2023/09/12 07:21:35;;;;;;;;;;;;;;;;;;4972112;28;93354;-66
2023/09/12 07:24:00;;;;;;;;;;;;;;;;;;4968859;28;92991;-65
2023/09/12 07:26:25;;;;;;;;;;;;;;;;;;4971028;28;93463;-63
2023/09/12 07:28:50;;;;;;;;;;;;;;;;;;4971427;28;94499;-62
2023/09/12 07:31:15;;;;;;;;;;;;;;;;;;4971606;28;92749;-63
2023/09/12 07:33:41;;;;;;;;;;;;;;;;;;4969521;28;92689;-68
2023/09/12 07:36:06;;;;;;;;;;;;;;;;;;4971444;28;94201;-61
2023/09/12 07:38:35;;;;;;;;;;;;;;;;;;4969306;28;92974;-62
2023/09/12 07:41:00;;;;;;;;;;;;;;;;;;4973029;28;94008;-61
2023/09/12 07:43:25;;;;;;;;;;;;;;;;;;4966646;28;92936;-63
2023/09/12 07:45:54;;;;;;;;;;;;;;;;;;4972578;28;93615;-64
2023/09/12 07:48:20;;;;;;;;;;;;;;;;;;4968675;28;92782;-62
2023/09/12 07:50:45;;;;;;;;;;;;;;;;;;4972933;28;93210;-63
2023/09/12 07:53:10;;;;;;;;;;;;;;;;;;4969354;28;92473;-68
2023/09/12 07:55:45;;;;;;;;;;;;;;;;;;4976416;28;93823;-67
2023/09/12 07:58:12;;;;;;;;;;;;;;;;;;4974110;28;92940;-70
2023/09/12 08:00:37;;;;;;;;;;;;;;;;;;4973692;28;93717;-63
2023/09/12 08:03:02;;;;;;;;;;;;;;;;;;4976725;28;92703;-62
2023/09/12 08:05:27;;;;;;;;;;;;;;;;;;4971007;28;94002;-62
2023/09/12 08:07:53;;;;;;;;;;;;;;;;;;4972542;28;93262;-64
2023/09/12 08:10:18;;;;;;;;;;;;;;;;;;4972672;28;92791;-70
2023/09/12 08:12:43;;;;;;;;;;;;;;;;;;4971044;28;93195;-65
2023/09/12 08:15:08;;;;;;;;;;;;;;;;;;4970954;28;93716;-69
2023/09/12 08:17:34;;;;;;;;;;;;;;;;;;4975185;28;92256;-63
2023/09/12 08:19:59;;;;;;;;;;;;;;;;;;4970969;28;93570;-69
2023/09/12 08:22:24;;;;;;;;;;;;;;;;;;4970123;28;92613;-62
2023/09/12 08:24:49;;;;;;;;;;;;;;;;;;4970028;28;94620;-61
2023/09/12 08:27:20;;;;;;;;;;;;;;;;;;4974592;28;92683;-65
2023/09/12 08:29:48;;;;;;;;;;;;;;;;;;4975686;28;92568;-69
2023/09/12 08:32:13;;;;;;;;;;;;;;;;;;4974645;28;92855;-66
2023/09/12 08:34:38;;;;;;;;;;;;;;;;;;4971795;28;93080;-61
2023/09/12 08:37:03;;;;;;;;;;;;;;;;;;4977028;28;92654;-65
2023/09/12 08:39:39;;;;;;;;;;;;;;;;;;4977857;28;92695;-65
2023/09/12 08:42:04;;;;;;;;;;;;;;;;;;4976846;28;93273;-71
2023/09/12 08:44:29;;;;;;;;;;;;;;;;;;4979292;28;93059;-64
2023/09/12 08:46:55;;;;;;;;;;;;;;;;;;4977735;28;93116;-67
2023/09/12 08:49:20;;;;;;;;;;;;;;;;;;4978081;28;93350;-63
2023/09/12 08:51:46;;;;;;;;;;;;;;;;;;4977281;28;93981;-64
2023/09/12 08:54:11;;;;;;;;;;;;;;;;;;4971907;28;93535;-68
2023/09/12 08:56:38;;;;;;;;;;;;;;;;;;4974280;28;92664;-63
2023/09/12 08:59:04;;;;;;;;;;;;;;;;;;4978643;28;93581;-66
2023/09/12 09:01:30;;;;;;;;;;;;;;;;;;4972911;28;92985;-63
2023/09/12 09:03:56;;;;;;;;;;;;;;;;;;4971990;28;94654;-63
2023/09/12 09:06:22;;;;;;;;;;;;;;;;;;4977394;28;92579;-63
2023/09/12 09:08:48;;;;;;;;;;;;;;;;;;4973264;28;92659;-63
2023/09/12 09:11:13;;;;;;;;;;;;;;;;;;4978078;28;93371;-64
2023/09/12 09:13:39;;;;;;;;;;;;;;;;;;4977854;28;94218;-67
2023/09/12 09:16:13;;;;;;;;;;;;;;;;;;4975656;28;93684;-63
2023/09/12 09:18:58;;;;;;;;;;;;;;;;;;4973977;28;92800;-63
2023/09/12 09:21:25;;;;;;;;;;;;;;;;;;4975514;28;93695;-64
2023/09/12 09:23:51;;;;;;;;;;;;;;;;;;4967073;28;95103;-66
2023/09/12 09:26:16;;;;;;;;;;;;;;;;;;4973726;28;92776;-62
2023/09/12 09:28:41;;;;;;;;;;;;;;;;;;4975115;28;92824;-62
2023/09/12 09:31:10;;;;;;;;;;;;;;;;;;4973278;28;92463;-65
2023/09/12 09:33:36;;;;;;;;;;;;;;;;;;4975774;28;93764;-64
2023/09/12 09:36:04;;;;;;;;;;;;;;;;;;4973658;28;92757;-63
2023/09/12 09:38:30;;;;;;;;;;;;;;;;;;4972320;28;94479;-63
2023/09/12 09:40:55;;;;;;;;;;;;;;;;;;4974167;28;92912;-68
2023/09/12 09:43:21;;;;;;;;;;;;;;;;;;4977643;28;92822;-65
2023/09/12 09:45:47;;;;;;;;;;;;;;;;;;4974960;28;92797;-64
2023/09/12 09:48:22;;;;;;;;;;;;;;;;;;4974633;28;93234;-64
2023/09/12 09:50:47;;;;;;;;;;;;;;;;;;4976803;28;92677;-66
2023/09/12 09:53:13;;;;;;;;;;;;;;;;;;4976405;28;95389;-72
2023/09/12 09:55:39;;;;;;;;;;;;;;;;;;4973874;28;92945;-66
2023/09/12 09:58:07;;;;;;;;;;;;;;;;;;4975683;28;93609;-68
2023/09/12 10:00:37;;;;;;;;;;;;;;;;;;4969053;28;92506;-70
2023/09/12 10:03:08;;;;;;;;;;;;;;;;;;4976438;28;93855;-67
2023/09/12 10:05:36;;;;;;;;;;;;;;;;;;4982124;28;93320;-66
2023/09/12 10:08:02;;;;;;;;;;;;;;;;;;4973999;28;92937;-66
2023/09/12 10:10:28;;;;;;;;;;;;;;;;;;4974612;28;92725;-62
2023/09/12 10:12:58;;;;;;;;;;;;;;;;;;4970494;28;93816;-64
2023/09/12 10:15:25;;;;;;;;;;;;;;;;;;4971882;28;92676;-62
2023/09/12 10:17:56;;;;;;;;;;;;;;;;;;4979983;28;92497;-62
2023/09/12 10:20:24;;;;;;;;;;;;;;;;;;4978685;28;94076;-62
2023/09/12 10:23:01;;;;;;;;;;;;;;;;;;4970474;28;93371;-61
2023/09/12 10:25:28;;;;;;;;;;;;;;;;;;4976898;28;94055;-66
2023/09/12 10:27:54;;;;;;;;;;;;;;;;;;4974043;28;94879;-65
2023/09/12 10:30:21;;;;;;;;;;;;;;;;;;4976652;28;93295;-64
2023/09/12 10:32:46;;;;;;;;;;;;;;;;;;4974807;28;92868;-63
2023/09/12 10:35:12;;;;;;;;;;;;;;;;;;4972336;28;93005;-63
2023/09/12 10:37:40;;;;;;;;;;;;;;;;;;4970140;28;93063;-68
2023/09/12 10:40:09;;;;;;;;;;;;;;;;;;4974171;28;93042;-69
2023/09/12 10:42:34;;;;;;;;;;;;;;;;;;4977363;28;92771;-66
2023/09/12 10:45:00;;;;;;;;;;;;;;;;;;4967369;28;100825;-63
2023/09/12 10:47:26;;;;;;;;;;;;;;;;;;4976623;28;93978;-69
2023/09/12 10:49:51;;;;;;;;;;;;;;;;;;4973512;28;92584;-62
2023/09/12 10:52:26;;;;;;;;;;;;;;;;;;4975514;28;93680;-63
2023/09/12 10:54:53;;;;;;;;;;;;;;;;;;4974768;28;92646;-63
2023/09/12 10:57:19;;;;;;;;;;;;;;;;;;4974372;28;93366;-65
2023/09/12 10:59:59;;;;;;;;;;;;;;;;;;4969565;28;92763;-64
2023/09/12 11:02:31;;;;;;;;;;;;;;;;;;4972618;28;92296;-63
2023/09/12 11:04:57;;;;;;;;;;;;;;;;;;4973709;28;92793;-64
2023/09/12 11:07:38;;;;;;;;;;;;;;;;;;4968989;28;92590;-65
2023/09/12 11:10:15;;;;;;;;;;;;;;;;;;4973737;28;92154;-64
2023/09/12 11:12:41;;;;;;;;;;;;;;;;;;4972733;28;94962;-64
2023/09/12 11:15:07;;;;;;;;;;;;;;;;;;4974106;28;92509;-64
2023/09/12 11:17:39;;;;;;;;;;;;;;;;;;4971490;28;95125;-64
2023/09/12 11:20:10;;;;;;;;;;;;;;;;;;4975313;28;93380;-64
2023/09/12 11:22:35;;;;;;;;;;;;;;;;;;4972457;28;93109;-65
2023/09/12 11:25:05;;;;;;;;;;;;;;;;;;4969924;28;92629;-66
2023/09/12 11:27:51;;;;;;;;;;;;;;;;;;4966327;28;93765;-66
2023/09/12 11:30:17;;;;;;;;;;;;;;;;;;4964892;28;92752;-64
2023/09/12 11:32:43;;;;;;;;;;;;;;;;;;4974208;28;92620;-65
2023/09/12 11:35:10;;;;;;;;;;;;;;;;;;4976321;28;93072;-65
2023/09/12 11:37:38;;;;;;;;;;;;;;;;;;4975651;28;93051;-67
2023/09/12 11:40:12;;;;;;;;;;;;;;;;;;4973768;28;93858;-65
2023/09/12 11:42:39;;;;;;;;;;;;;;;;;;4974615;28;93587;-69
2023/09/12 11:45:07;;;;;;;;;;;;;;;;;;4971246;28;93404;-64
2023/09/12 11:47:33;;;;;;;;;;;;;;;;;;4966619;28;92736;-64
2023/09/12 11:49:59;;;;;;;;;;;;;;;;;;4972259;28;93300;-63
2023/09/12 11:52:24;;;;;;;;;;;;;;;;;;4975499;28;92898;-63
2023/09/12 11:54:49;;;;;;;;;;;;;;;;;;4969707;28;93715;-64
2023/09/12 11:57:15;;;;;;;;;;;;;;;;;;4971642;28;92558;-65
2023/09/12 11:59:41;;;;;;;;;;;;;;;;;;4968899;28;92632;-64
2023/09/12 12:02:10;;;;;;;;;;;;;;;;;;4970795;28;93417;-66
2023/09/12 12:04:35;;;;;;;;;;;;;;;;;;4967345;28;93218;-64
2023/09/12 12:07:06;;;;;;;;;;;;;;;;;;4968604;28;94567;-63
2023/09/12 12:09:31;;;;;;;;;;;;;;;;;;4971991;28;94022;-64
2023/09/12 12:12:01;;;;;;;;;;;;;;;;;;4979965;28;92549;-64
2023/09/12 12:14:26;;;;;;;;;;;;;;;;;;4979614;28;94246;-65
2023/09/12 12:16:52;;;;;;;;;;;;;;;;;;4975016;28;92992;-65
2023/09/12 12:19:17;;;;;;;;;;;;;;;;;;4978328;28;93722;-65
2023/09/12 12:21:42;;;;;;;;;;;;;;;;;;4981413;28;92636;-63
2023/09/12 12:24:10;;;;;;;;;;;;;;;;;;4978475;28;92522;-64
2023/09/12 12:26:35;;;;;;;;;;;;;;;;;;4980063;28;93967;-64
2023/09/12 12:29:01;;;;;;;;;;;;;;;;;;4980942;28;93189;-64
2023/09/12 12:31:26;;;;;;;;;;;;;;;;;;4980200;28;94363;-63
2023/09/12 12:33:56;;;;;;;;;;;;;;;;;;4977228;28;93008;-66
2023/09/12 12:36:21;;;;;;;;;;;;;;;;;;4982121;28;93581;-64
2023/09/12 12:38:47;;;;;;;;;;;;;;;;;;4977961;28;92980;-63
2023/09/12 12:41:14;;;;;;;;;;;;;;;;;;4978957;28;92553;-63
2023/09/12 12:43:41;;;;;;;;;;;;;;;;;;4974074;28;92687;-65
2023/09/12 12:46:09;;;;;;;;;;;;;;;;;;4983040;28;93431;-66
2023/09/12 12:48:36;;;;;;;;;;;;;;;;;;4978825;28;92850;-68
2023/09/12 12:51:16;;;;;;;;;;;;;;;;;;4979782;28;93234;-64
2023/09/12 12:53:42;;;;;;;;;;;;;;;;;;4977271;28;94457;-65
2023/09/12 12:56:08;;;;;;;;;;;;;;;;;;4979916;28;93704;-64
2023/09/12 12:58:34;;;;;;;;;;;;;;;;;;4985361;28;94333;-65
2023/09/12 13:01:00;;;;;;;;;;;;;;;;;;4976618;28;93620;-64
2023/09/12 13:03:25;;;;;;;;;;;;;;;;;;4978354;28;95014;-66
2023/09/12 13:05:51;;;;;;;;;;;;;;;;;;4979428;28;92660;-64
2023/09/12 13:08:16;;;;;;;;;;;;;;;;;;4978295;28;92758;-64
2023/09/12 13:10:42;;;;;;;;;;;;;;;;;;4975065;28;92864;-64
2023/09/12 13:13:08;;;;;;;;;;;;;;;;;;4981522;28;93131;-65
2023/09/12 13:15:33;;;;;;;;;;;;;;;;;;4980069;28;92965;-65
2023/09/12 13:17:58;;;;;;;;;;;;;;;;;;4982538;28;92936;-64
2023/09/12 13:20:23;;;;;;;;;;;;;;;;;;4978544;28;93775;-64
2023/09/12 13:22:49;;;;;;;;;;;;;;;;;;4972334;28;95530;-64
2023/09/12 13:25:14;;;;;;;;;;;;;;;;;;4968865;28;95334;-66
2023/09/12 13:27:40;;;;;;;;;;;;;;;;;;4970366;28;92889;-65
2023/09/12 13:30:05;;;;;;;;;;;;;;;;;;4975248;28;93742;-65
2023/09/12 13:32:31;;;;;;;;;;;;;;;;;;4972141;28;93856;-66
2023/09/12 13:34:56;;;;;;;;;;;;;;;;;;4972003;28;93232;-65
2023/09/12 13:37:21;;;;;;;;;;;;;;;;;;4981775;28;93689;-64
2023/09/12 13:39:48;;;;;;;;;;;;;;;;;;4978423;28;94200;-64
2023/09/12 13:42:14;;;;;;;;;;;;;;;;;;4977960;28;92388;-66
2023/09/12 13:44:39;;;;;;;;;;;;;;;;;;4971639;28;94723;-64
2023/09/12 13:47:05;;;;;;;;;;;;;;;;;;4971079;28;92891;-64
2023/09/12 13:49:30;;;;;;;;;;;;;;;;;;4974084;28;92947;-64
2023/09/12 13:51:55;;;;;;;;;;;;;;;;;;4974549;28;94360;-63
2023/09/12 13:54:21;;;;;;;;;;;;;;;;;;4972207;28;92819;-65
2023/09/12 13:56:46;;;;;;;;;;;;;;;;;;4968709;28;93650;-63
2023/09/12 13:59:11;;;;;;;;;;;;;;;;;;4970723;28;94153;-63
2023/09/12 14:01:37;;;;;;;;;;;;;;;;;;4973887;28;92516;-64
2023/09/12 14:04:03;;;;;;;;;;;;;;;;;;4979213;28;93031;-64
2023/09/12 14:06:28;;;;;;;;;;;;;;;;;;4972761;28;94078;-65
2023/09/12 14:08:53;;;;;;;;;;;;;;;;;;4972945;28;93532;-63
2023/09/12 14:11:19;;;;;;;;;;;;;;;;;;4974020;28;94976;-64
2023/09/12 14:13:44;;;;;;;;;;;;;;;;;;4972808;28;92928;-65
2023/09/12 14:16:09;;;;;;;;;;;;;;;;;;4972787;28;92363;-64
2023/09/12 14:18:35;;;;;;;;;;;;;;;;;;4974257;28;95441;-63
2023/09/12 14:21:00;;;;;;;;;;;;;;;;;;4977750;28;93214;-67
2023/09/12 14:23:25;;;;;;;;;;;;;;;;;;4973182;28;93247;-63
2023/09/12 14:25:51;;;;;;;;;;;;;;;;;;4977324;28;92056;-63
2023/09/12 14:28:17;;;;;;;;;;;;;;;;;;4974494;28;93017;-65
2023/09/12 14:30:45;;;;;;;;;;;;;;;;;;4974631;28;92844;-67
2023/09/12 14:33:10;;;;;;;;;;;;;;;;;;4968414;28;93420;-64
2023/09/12 14:35:36;;;;;;;;;;;;;;;;;;4977344;28;93106;-65
2023/09/12 14:38:01;;;;;;;;;;;;;;;;;;4972153;28;94081;-64
2023/09/12 14:40:27;;;;;;;;;;;;;;;;;;4973369;28;92779;-63
2023/09/12 14:42:53;;;;;;;;;;;;;;;;;;4969143;28;93885;-65
2023/09/12 14:45:18;;;;;;;;;;;;;;;;;;4975092;28;93483;-64
2023/09/12 14:47:43;;;;;;;;;;;;;;;;;;4969458;28;92396;-64
2023/09/12 14:50:09;;;;;;;;;;;;;;;;;;4974519;28;92103;-65
2023/09/12 14:52:34;;;;;;;;;;;;;;;;;;4975220;28;93695;-64
2023/09/12 14:54:59;;;;;;;;;;;;;;;;;;4970359;28;93037;-64
2023/09/12 14:57:25;;;;;;;;;;;;;;;;;;4973328;28;93614;-64
2023/09/12 14:59:51;;;;;;;;;;;;;;;;;;4975772;28;94074;-64
2023/09/12 15:02:16;;;;;;;;;;;;;;;;;;4970423;28;93835;-63
2023/09/12 15:04:42;;;;;;;;;;;;;;;;;;4968454;28;93731;-64
2023/09/12 15:07:07;;;;;;;;;;;;;;;;;;4975459;28;93918;-65
2023/09/12 15:09:32;;;;;;;;;;;;;;;;;;4972262;28;94000;-64
2023/09/12 15:11:58;;;;;;;;;;;;;;;;;;4967828;28;92254;-64
2023/09/12 15:14:23;;;;;;;;;;;;;;;;;;4971440;28;92072;-65
2023/09/12 15:16:48;;;;;;;;;;;;;;;;;;4966965;28;93795;-64
2023/09/12 15:19:13;;;;;;;;;;;;;;;;;;4975223;28;93476;-72
2023/09/12 15:21:39;;;;;;;;;;;;;;;;;;4976176;28;94902;-64
2023/09/12 15:24:04;;;;;;;;;;;;;;;;;;4968975;28;93708;-67
2023/09/12 15:26:29;;;;;;;;;;;;;;;;;;4968569;28;94015;-67
2023/09/12 15:28:54;;;;;;;;;;;;;;;;;;4970837;28;95331;-66
2023/09/12 15:31:20;;;;;;;;;;;;;;;;;;4976629;28;93387;-66
2023/09/12 15:33:45;;;;;;;;;;;;;;;;;;4973221;28;92742;-64
2023/09/12 15:36:10;;;;;;;;;;;;;;;;;;4973190;28;93259;-64
2023/09/12 15:38:35;;;;;;;;;;;;;;;;;;4971061;28;91516;-64
2023/09/12 15:41:02;;;;;;;;;;;;;;;;;;4972639;28;92843;-64
2023/09/12 15:43:28;;;;;;;;;;;;;;;;;;4969471;28;92986;-64
2023/09/12 15:45:53;;;;;;;;;;;;;;;;;;4970153;28;94074;-65
2023/09/12 15:48:19;;;;;;;;;;;;;;;;;;4973944;28;96663;-64
2023/09/12 15:50:44;;;;;;;;;;;;;;;;;;4974580;28;93305;-63
2023/09/12 15:53:09;;;;;;;;;;;;;;;;;;4973040;28;92819;-64
2023/09/12 15:55:35;;;;;;;;;;;;;;;;;;4976045;28;92914;-63
2023/09/12 15:58:00;;;;;;;;;;;;;;;;;;4968807;28;92714;-64
2023/09/12 16:00:26;;;;;;;;;;;;;;;;;;4973828;28;92860;-63
2023/09/12 16:02:53;;;;;;;;;;;;;;;;;;4977755;28;93138;-64
2023/09/12 16:05:18;;;;;;;;;;;;;;;;;;4970875;28;92976;-65
2023/09/12 16:07:44;;;;;;;;;;;;;;;;;;4974296;28;92700;-62
2023/09/12 16:10:12;;;;;;;;;;;;;;;;;;4974141;28;94755;-64
2023/09/12 16:12:37;;;;;;;;;;;;;;;;;;4974835;28;92594;-62
2023/09/12 16:15:03;;;;;;;;;;;;;;;;;;4972161;28;92697;-63
2023/09/12 16:17:28;;;;;;;;;;;;;;;;;;4969239;28;92676;-63
2023/09/12 16:19:54;;;;;;;;;;;;;;;;;;4975962;28;93494;-62
2023/09/12 16:22:19;;;;;;;;;;;;;;;;;;4969841;28;93666;-64
2023/09/12 16:24:44;;;;;;;;;;;;;;;;;;4970939;28;92556;-62
2023/09/12 16:27:10;;;;;;;;;;;;;;;;;;4968229;28;92450;-63
2023/09/12 16:29:36;;;;;;;;;;;;;;;;;;4965509;28;95759;-64
2023/09/12 16:32:02;;;;;;;;;;;;;;;;;;4969264;28;92712;-65
2023/09/12 16:34:27;;;;;;;;;;;;;;;;;;4970673;28;94145;-64
2023/09/12 16:36:53;;;;;;;;;;;;;;;;;;4970106;28;93212;-63
2023/09/12 16:39:18;;;;;;;;;;;;;;;;;;4971212;28;93361;-64